createdAt,value
2018-04-13T00:00:13.966Z,6.80
2018-04-13T00:02:42.721Z,6.70
2018-04-13T00:05:10.628Z,6.70
2018-04-13T00:07:38.587Z,6.60
2018-04-13T00:10:07.261Z,6.50
2018-04-13T00:12:35.197Z,6.40
2018-04-13T00:15:03.143Z,6.50
2018-04-13T00:17:31.075Z,6.50
2018-04-13T00:19:58.978Z,6.50
2018-04-13T00:22:26.929Z,6.60
2018-04-13T00:24:55.574Z,6.30
2018-04-13T00:27:23.527Z,6.30
2018-04-13T00:29:51.415Z,6.20
2018-04-13T00:32:19.362Z,6.30
2018-04-13T00:34:47.240Z,6.40
2018-04-13T00:37:15.180Z,6.30
2018-04-13T00:39:43.060Z,6.30
2018-04-13T00:42:10.996Z,6.30
2018-04-13T00:44:39.643Z,6.10
2018-04-13T00:47:07.589Z,6.10
2018-04-13T00:49:35.465Z,6.10
2018-04-13T00:52:03.462Z,6.10
2018-04-13T00:54:31.342Z,6.10
2018-04-13T00:56:59.291Z,6.10
2018-04-13T00:59:27.179Z,6.10
2018-04-13T01:01:55.122Z,6.10
2018-04-13T01:04:23.014Z,6.00
2018-04-13T01:06:50.975Z,6.00
2018-04-13T01:09:18.856Z,5.90
2018-04-13T01:11:46.806Z,5.80
2018-04-13T01:14:14.704Z,5.70
2018-04-13T01:16:43.421Z,5.80
2018-04-13T01:19:12.088Z,5.90
2018-04-13T01:21:40.800Z,5.90
2018-04-13T01:24:08.690Z,5.90
2018-04-13T01:26:36.625Z,5.80
2018-04-13T01:29:04.510Z,5.80
2018-04-13T01:31:32.453Z,5.80
2018-04-13T01:34:01.096Z,5.70
2018-04-13T01:36:29.032Z,5.60
2018-04-13T01:38:56.916Z,5.70
2018-04-13T01:41:24.851Z,5.70
2018-04-13T01:43:52.733Z,5.60
2018-04-13T01:46:20.690Z,5.60
2018-04-13T01:48:48.586Z,5.40
2018-04-13T01:51:16.534Z,5.40
2018-04-13T01:53:44.419Z,5.40
2018-04-13T01:56:12.352Z,5.40
2018-04-13T01:58:41.041Z,5.30
2018-04-13T02:01:09.752Z,5.20
2018-04-13T02:03:37.635Z,5.20
2018-04-13T02:06:05.579Z,5.10
2018-04-13T02:08:33.469Z,5.10
2018-04-13T02:11:01.357Z,5.20
2018-04-13T02:13:29.292Z,5.30
2018-04-13T02:15:57.172Z,5.20
2018-04-13T02:18:25.126Z,5.20
2018-04-13T02:20:53.012Z,5.20
2018-04-13T02:23:20.944Z,5.20
2018-04-13T02:25:49.608Z,5.10
2018-04-13T02:28:17.583Z,5.10
2018-04-13T02:30:45.477Z,5.00
2018-04-13T02:33:14.181Z,4.90
2018-04-13T02:35:42.066Z,4.90
2018-04-13T02:38:10.014Z,4.80
2018-04-13T02:40:37.896Z,4.80
2018-04-13T02:43:05.876Z,4.90
2018-04-13T02:45:33.776Z,4.90
2018-04-13T02:48:01.718Z,4.90
2018-04-13T02:50:29.590Z,4.80
2018-04-13T02:52:57.522Z,4.80
2018-04-13T02:55:26.178Z,4.80
2018-04-13T02:57:54.109Z,4.80
2018-04-13T03:00:21.990Z,4.80
2018-04-13T03:02:49.921Z,4.90
2018-04-13T03:05:17.809Z,4.90
2018-04-13T03:07:45.731Z,4.90
2018-04-13T03:10:13.608Z,5.10
2018-04-13T03:12:42.333Z,5.20
2018-04-13T03:15:10.232Z,5.20
2018-04-13T03:17:38.176Z,5.30
2018-04-13T03:20:06.059Z,5.30
2018-04-13T03:22:33.989Z,5.30
2018-04-13T03:25:01.889Z,5.30
2018-04-13T03:27:29.842Z,5.40
2018-04-13T03:29:57.742Z,5.40
2018-04-13T03:32:25.673Z,5.40
2018-04-13T03:34:53.557Z,5.40
2018-04-13T03:37:21.492Z,5.30
2018-04-13T03:39:49.402Z,5.30
2018-04-13T03:42:17.340Z,5.30
2018-04-13T03:44:45.223Z,5.20
2018-04-13T03:47:13.928Z,5.30
2018-04-13T03:49:41.841Z,5.30
2018-04-13T03:52:09.788Z,5.20
2018-04-13T03:54:37.683Z,5.00
2018-04-13T03:57:06.390Z,5.00
2018-04-13T03:59:34.288Z,5.00
2018-04-13T04:02:02.229Z,5.00
2018-04-13T04:04:30.122Z,5.00
2018-04-13T04:06:58.905Z,5.00
2018-04-13T04:09:26.784Z,5.00
2018-04-13T04:11:54.724Z,4.90
2018-04-13T04:14:22.626Z,4.90
2018-04-13T04:16:51.781Z,4.80
2018-04-13T04:19:22.211Z,4.90
2018-04-13T04:22:02.791Z,4.90
2018-04-13T04:27:34.005Z,5.00
2018-04-13T04:30:01.889Z,4.90
2018-04-13T04:32:29.840Z,4.90
2018-04-13T04:34:57.750Z,4.90
2018-04-13T04:37:26.466Z,4.90
2018-04-13T04:39:55.209Z,4.90
2018-04-13T04:42:23.245Z,4.90
2018-04-13T04:44:54.705Z,5.00
2018-04-13T04:47:26.436Z,5.00
2018-04-13T04:49:57.564Z,5.10
2018-04-13T04:52:28.661Z,5.20
2018-04-13T04:54:56.748Z,5.20
2018-04-13T04:57:24.702Z,5.30
2018-04-13T04:59:59.009Z,5.30
2018-04-13T05:02:30.972Z,5.20
2018-04-13T05:05:02.439Z,5.30
2018-04-13T05:07:36.129Z,5.20
2018-04-13T05:10:08.370Z,5.30
2018-04-13T05:12:41.485Z,5.30
2018-04-13T05:15:10.983Z,5.40
2018-04-13T05:17:45.793Z,5.50
2018-04-13T05:20:17.139Z,5.60
2018-04-13T05:22:45.300Z,5.60
2018-04-13T05:25:17.494Z,5.70
2018-04-13T05:27:49.340Z,5.70
2018-04-13T05:30:20.913Z,5.70
2018-04-13T05:32:52.302Z,5.80
2018-04-13T05:35:23.437Z,5.90
2018-04-13T05:37:56.212Z,5.90
2018-04-13T05:40:28.426Z,5.90
2018-04-13T05:43:01.596Z,5.90
2018-04-13T05:45:31.641Z,5.90
2018-04-13T05:48:04.401Z,6.00
2018-04-13T05:50:36.020Z,6.10
2018-04-13T05:53:07.401Z,6.30
2018-04-13T05:55:37.645Z,6.50
2018-04-13T05:58:08.849Z,6.50
2018-04-13T06:00:40.495Z,6.60
2018-04-13T06:03:11.674Z,6.70
2018-04-13T06:05:44.613Z,7.00
2018-04-13T06:08:16.701Z,6.90
2018-04-13T06:10:44.584Z,7.10
2018-04-13T06:13:15.888Z,7.00
2018-04-13T06:15:46.561Z,7.20
2018-04-13T06:18:16.164Z,7.50
2018-04-13T06:20:47.561Z,7.60
2018-04-13T06:23:17.961Z,8.10
2018-04-13T06:25:49.131Z,8.10
2018-04-13T06:28:20.180Z,8.30
2018-04-13T06:30:53.446Z,9.20
2018-04-13T06:33:29.444Z,9.50
2018-04-13T06:36:00.538Z,9.50
2018-04-13T06:38:32.092Z,9.90
2018-04-13T06:41:03.208Z,10.30
2018-04-13T06:43:31.284Z,10.40
2018-04-13T06:46:02.400Z,10.50
2018-04-13T06:48:34.176Z,10.50
2018-04-13T06:51:03.184Z,10.60
2018-04-13T06:53:34.447Z,10.60
2018-04-13T06:56:04.310Z,10.60
2018-04-13T06:58:33.119Z,9.90
2018-04-13T07:01:01.009Z,9.80
2018-04-13T07:03:29.713Z,9.70
2018-04-13T07:05:57.591Z,9.60
2018-04-13T07:08:25.564Z,9.60
2018-04-13T07:10:53.453Z,9.60
2018-04-13T07:13:25.460Z,9.50
2018-04-13T07:15:53.367Z,9.40
2018-04-13T07:18:21.296Z,9.60
2018-04-13T07:20:49.171Z,9.60
2018-04-13T07:23:17.878Z,9.70
2018-04-13T07:25:45.842Z,9.70
2018-04-13T07:28:13.787Z,9.70
2018-04-13T07:30:41.660Z,9.80
2018-04-13T07:33:09.598Z,9.80
2018-04-13T07:35:38.263Z,10.00
2018-04-13T07:38:06.229Z,10.00
2018-04-13T07:40:34.129Z,10.00
2018-04-13T07:43:02.853Z,10.40
2018-04-13T07:45:30.755Z,10.40
2018-04-13T07:47:58.701Z,10.50
2018-04-13T07:50:26.588Z,10.60
2018-04-13T07:52:54.534Z,10.70
2018-04-13T07:55:22.437Z,10.80
2018-04-13T07:57:50.411Z,10.90
2018-04-13T08:00:18.352Z,11.00
2018-04-13T08:02:46.256Z,11.10
2018-04-13T08:05:15.061Z,11.40
2018-04-13T08:07:43.843Z,11.40
2018-04-13T08:10:11.764Z,11.40
2018-04-13T08:12:39.653Z,11.40
2018-04-13T08:15:07.612Z,11.20
2018-04-13T08:17:35.503Z,11.30
2018-04-13T08:20:03.494Z,11.40
2018-04-13T08:22:32.149Z,11.70
2018-04-13T08:25:00.095Z,11.60
2018-04-13T08:27:27.987Z,11.60
2018-04-13T08:29:57.984Z,11.80
2018-04-13T08:32:25.951Z,12.00
2018-04-13T08:34:53.919Z,12.10
2018-04-13T08:37:21.805Z,12.30
2018-04-13T08:39:49.746Z,12.20
2018-04-13T08:42:17.697Z,12.10
2018-04-13T08:44:45.651Z,12.20
2018-04-13T08:47:18.698Z,12.40
2018-04-13T08:49:46.644Z,12.40
2018-04-13T08:52:14.536Z,12.50
2018-04-13T08:54:42.481Z,12.70
2018-04-13T08:57:10.456Z,12.80
2018-04-13T08:59:38.411Z,12.80
2018-04-13T09:02:06.346Z,12.90
2018-04-13T09:04:34.293Z,13.10
2018-04-13T09:07:02.336Z,13.20
2018-04-13T09:09:30.287Z,13.40
2018-04-13T09:11:58.169Z,13.40
2018-04-13T09:14:26.203Z,13.60
2018-04-13T09:16:54.857Z,13.60
2018-04-13T09:19:22.814Z,13.60
2018-04-13T09:21:50.691Z,13.60
2018-04-13T09:24:18.638Z,13.60
2018-04-13T09:26:46.543Z,13.60
2018-04-13T09:29:14.503Z,13.60
2018-04-13T09:31:42.467Z,13.60
2018-04-13T09:34:10.481Z,13.70
2018-04-13T09:36:39.134Z,13.60
2018-04-13T09:39:07.138Z,13.60
2018-04-13T09:41:35.844Z,13.70
2018-04-13T09:44:03.802Z,13.70
2018-04-13T09:46:32.524Z,13.70
2018-04-13T09:49:00.421Z,13.70
2018-04-13T09:51:28.372Z,13.70
2018-04-13T09:53:57.053Z,14.00
2018-04-13T09:56:25.023Z,14.00
2018-04-13T09:58:52.941Z,13.90
2018-04-13T10:01:21.680Z,13.90
2018-04-13T10:03:50.377Z,13.70
2018-04-13T10:06:18.329Z,13.50
2018-04-13T10:08:46.247Z,13.40
2018-04-13T10:11:14.205Z,13.40
2018-04-13T10:13:42.144Z,13.30
2018-04-13T10:16:10.124Z,13.20
2018-04-13T10:18:38.950Z,13.20
2018-04-13T10:21:07.056Z,13.20
2018-04-13T10:23:35.719Z,13.20
2018-04-13T10:26:03.862Z,13.20
2018-04-13T10:28:31.745Z,13.30
2018-04-13T10:30:59.705Z,13.30
2018-04-13T10:33:27.585Z,13.40
2018-04-13T10:35:55.534Z,13.40
2018-04-13T10:38:23.426Z,13.50
2018-04-13T10:40:51.407Z,13.50
2018-04-13T10:43:19.347Z,13.70
2018-04-13T10:45:47.321Z,13.80
2018-04-13T10:48:15.265Z,13.90
2018-04-13T10:50:43.206Z,14.00
2018-04-13T10:53:11.927Z,14.20
2018-04-13T10:55:39.825Z,14.10
2018-04-13T10:58:07.778Z,14.30
2018-04-13T11:00:35.677Z,14.30
2018-04-13T11:03:03.634Z,14.30
2018-04-13T11:05:31.559Z,14.30
2018-04-13T11:07:59.669Z,14.40
2018-04-13T11:10:27.621Z,14.40
2018-04-13T11:12:55.568Z,14.60
2018-04-13T11:15:23.461Z,14.70
2018-04-13T11:17:51.429Z,14.90
2018-04-13T11:20:19.322Z,15.20
2018-04-13T11:22:47.310Z,15.20
2018-04-13T11:25:15.224Z,15.40
2018-04-13T11:27:43.177Z,15.60
2018-04-13T11:30:11.119Z,15.70
2018-04-13T11:32:39.067Z,16.10
2018-04-13T11:35:06.974Z,16.00
2018-04-13T11:37:35.732Z,16.30
2018-04-13T11:40:03.687Z,16.30
2018-04-13T11:42:31.653Z,16.20
2018-04-13T11:44:59.556Z,16.20
2018-04-13T11:47:27.464Z,16.30
2018-04-13T11:49:55.425Z,16.30
2018-04-13T11:52:23.338Z,16.50
2018-04-13T11:54:51.287Z,16.50
2018-04-13T11:57:19.942Z,16.40
2018-04-13T11:59:48.660Z,16.00
2018-04-13T12:02:16.620Z,16.00
2018-04-13T12:04:44.563Z,15.80
2018-04-13T12:07:13.240Z,15.40
2018-04-13T12:09:41.983Z,15.30
2018-04-13T12:12:09.894Z,15.30
2018-04-13T12:14:37.864Z,15.00
2018-04-13T12:17:05.800Z,14.90
2018-04-13T12:19:33.767Z,14.80
2018-04-13T12:22:01.677Z,14.70
2018-04-13T12:24:29.632Z,14.70
2018-04-13T12:26:57.541Z,14.70
2018-04-13T12:29:25.508Z,14.80
2018-04-13T12:31:54.235Z,14.60
2018-04-13T12:34:22.257Z,14.60
2018-04-13T12:36:50.916Z,14.70
2018-04-13T12:39:18.889Z,14.60
2018-04-13T12:41:46.795Z,14.70
2018-04-13T12:44:15.510Z,14.70
2018-04-13T12:46:43.400Z,14.70
2018-04-13T12:49:11.359Z,14.80
2018-04-13T12:51:39.271Z,14.70
2018-04-13T12:54:08.141Z,14.80
2018-04-13T12:56:36.152Z,14.80
2018-04-13T12:59:04.857Z,15.00
2018-04-13T13:01:32.779Z,15.00
2018-04-13T13:04:00.748Z,15.00
2018-04-13T13:06:28.694Z,15.20
2018-04-13T13:08:56.718Z,15.20
2018-04-13T13:11:24.692Z,15.00
2018-04-13T13:13:52.604Z,15.00
2018-04-13T13:16:20.554Z,15.10
2018-04-13T13:18:48.507Z,15.10
2018-04-13T13:21:16.508Z,15.10
2018-04-13T13:23:44.403Z,15.10
2018-04-13T13:26:12.402Z,15.00
2018-04-13T13:28:41.091Z,14.80
2018-04-13T13:31:09.813Z,14.70
2018-04-13T13:33:37.723Z,14.70
2018-04-13T13:36:05.693Z,14.70
2018-04-13T13:38:33.594Z,14.70
2018-04-13T13:41:01.558Z,14.90
2018-04-13T13:43:30.219Z,14.90
2018-04-13T13:45:58.193Z,14.90
2018-04-13T13:48:26.106Z,14.90
2018-04-13T13:50:54.073Z,15.00
2018-04-13T13:53:26.910Z,14.90
2018-04-13T13:55:54.873Z,14.90
2018-04-13T13:58:22.773Z,14.90
2018-04-13T14:00:51.471Z,14.90
2018-04-13T14:03:19.344Z,14.90
2018-04-13T14:05:47.285Z,14.90
2018-04-13T14:08:15.961Z,14.80
2018-04-13T14:10:43.909Z,14.80
2018-04-13T14:13:11.847Z,14.80
2018-04-13T14:15:39.791Z,14.80
2018-04-13T14:18:08.433Z,14.80
2018-04-13T14:20:36.378Z,14.80
2018-04-13T14:23:04.268Z,15.00
2018-04-13T14:25:32.222Z,15.00
2018-04-13T14:28:00.103Z,15.00
2018-04-13T14:30:28.122Z,15.00
2018-04-13T14:32:56.015Z,15.00
2018-04-13T14:35:23.963Z,15.00
2018-04-13T14:37:52.624Z,15.00
2018-04-13T14:40:20.518Z,15.00
2018-04-13T14:42:49.163Z,14.90
2018-04-13T14:45:17.052Z,14.90
2018-04-13T14:47:44.996Z,14.90
2018-04-13T14:50:12.888Z,14.80
2018-04-13T14:52:40.850Z,14.80
2018-04-13T14:55:08.752Z,14.80
2018-04-13T14:57:37.485Z,14.60
2018-04-13T15:00:05.376Z,14.60
2018-04-13T15:02:33.373Z,14.50
2018-04-13T15:05:01.340Z,14.40
2018-04-13T15:07:29.308Z,14.30
2018-04-13T15:09:57.206Z,14.20
2018-04-13T15:12:25.157Z,14.20
2018-04-13T15:14:53.819Z,14.20
2018-04-13T15:17:21.771Z,14.20
2018-04-13T15:19:49.667Z,14.30
2018-04-13T15:22:17.618Z,14.30
2018-04-13T15:24:45.568Z,14.40
2018-04-13T15:27:13.519Z,14.40
2018-04-13T15:29:41.412Z,14.50
2018-04-13T15:32:09.306Z,14.60
2018-04-13T15:34:37.236Z,14.70
2018-04-13T15:37:05.156Z,14.70
2018-04-13T15:39:33.107Z,14.70
2018-04-13T15:42:01.006Z,14.70
2018-04-13T15:44:29.730Z,14.60
2018-04-13T15:46:57.684Z,14.60
2018-04-13T15:49:25.646Z,14.50
2018-04-13T15:51:53.563Z,14.40
2018-04-13T15:54:21.515Z,14.30
2018-04-13T15:56:50.532Z,14.20
2018-04-13T15:59:18.671Z,14.10
2018-04-13T16:01:46.672Z,14.00
2018-04-13T16:04:14.679Z,13.90
2018-04-13T16:06:42.626Z,13.90
2018-04-13T16:09:10.633Z,13.70
2018-04-13T16:11:38.534Z,13.70
2018-04-13T16:14:06.525Z,13.50
2018-04-13T16:16:34.427Z,13.40
2018-04-13T16:19:03.142Z,13.00
2018-04-13T16:21:31.032Z,12.90
2018-04-13T16:23:58.984Z,12.90
2018-04-13T16:26:26.930Z,12.70
2018-04-13T16:28:55.594Z,12.50
2018-04-13T16:31:23.581Z,12.50
2018-04-13T16:33:52.271Z,12.30
2018-04-13T16:36:20.239Z,12.20
2018-04-13T16:38:48.125Z,12.20
2018-04-13T16:41:16.824Z,12.10
2018-04-13T16:43:44.776Z,12.10
2018-04-13T16:46:13.498Z,12.10
2018-04-13T16:48:41.387Z,12.00
2018-04-13T16:51:09.901Z,12.10
2018-04-13T16:53:37.789Z,12.10
2018-04-13T16:56:06.496Z,12.00
2018-04-13T16:58:34.400Z,12.00
2018-04-13T17:01:02.354Z,12.00
2018-04-13T17:03:30.291Z,11.90
2018-04-13T17:05:58.258Z,11.90
2018-04-13T17:08:26.941Z,11.70
2018-04-13T17:10:55.683Z,11.70
2018-04-13T17:13:23.584Z,11.70
2018-04-13T17:15:58.837Z,11.60
2018-04-13T17:18:26.778Z,11.60
2018-04-13T17:20:54.728Z,11.60
2018-04-13T17:23:22.613Z,11.50
2018-04-13T17:25:50.578Z,11.50
2018-04-13T17:28:18.494Z,11.50
2018-04-13T17:30:46.439Z,11.50
2018-04-13T17:33:14.443Z,11.40
2018-04-13T17:35:42.401Z,11.40
2018-04-13T17:38:10.355Z,11.40
2018-04-13T17:40:39.095Z,11.40
2018-04-13T17:43:07.051Z,11.40
2018-04-13T17:45:35.305Z,11.40
2018-04-13T17:48:03.225Z,11.30
2018-04-13T17:50:31.198Z,11.30
2018-04-13T17:52:59.113Z,11.20
2018-04-13T17:55:27.750Z,11.20
2018-04-13T17:57:58.288Z,11.20
2018-04-13T18:00:26.399Z,11.20
2018-04-13T18:02:54.357Z,11.10
2018-04-13T18:05:24.601Z,11.10
2018-04-13T18:07:52.511Z,11.10
2018-04-13T18:10:20.493Z,11.10
2018-04-13T18:12:48.411Z,11.10
2018-04-13T18:15:16.372Z,11.10
2018-04-13T18:17:45.059Z,11.10
2018-04-13T18:20:14.337Z,11.00
2018-04-13T18:22:45.391Z,11.00
2018-04-13T18:25:14.150Z,11.00
2018-04-13T18:27:42.133Z,11.00
2018-04-13T18:30:10.829Z,10.90
2018-04-13T18:32:38.801Z,10.80
2018-04-13T18:35:07.500Z,10.90
2018-04-13T18:37:36.830Z,10.90
2018-04-13T18:40:04.760Z,10.80
2018-04-13T18:42:35.634Z,10.90
2018-04-13T18:45:06.383Z,10.90
2018-04-13T18:47:36.232Z,10.90
2018-04-13T18:50:08.551Z,10.90
2018-04-13T18:52:39.154Z,10.90
2018-04-13T18:55:11.004Z,10.90
2018-04-13T18:57:42.483Z,10.80
2018-04-13T19:00:13.426Z,10.80
2018-04-13T19:02:45.003Z,10.70
2018-04-13T19:05:16.110Z,10.60
2018-04-13T19:07:48.162Z,10.60
2018-04-13T19:10:19.768Z,10.60
2018-04-13T19:12:51.786Z,10.60
2018-04-13T19:15:22.626Z,10.60
2018-04-13T19:17:54.881Z,10.60
2018-04-13T19:20:22.956Z,10.50
2018-04-13T19:22:50.920Z,10.50
2018-04-13T19:25:18.939Z,10.60
2018-04-13T19:27:46.936Z,10.50
2018-04-13T19:30:14.829Z,10.60
2018-04-13T19:32:42.790Z,10.60
2018-04-13T19:35:10.692Z,10.50
2018-04-13T19:37:38.639Z,10.50
2018-04-13T19:40:06.544Z,10.50
2018-04-13T19:42:34.505Z,10.50
2018-04-13T19:45:02.991Z,10.50
2018-04-13T19:47:31.720Z,10.40
2018-04-13T19:49:59.618Z,10.40
2018-04-13T19:52:30.424Z,10.40
2018-04-13T19:54:58.684Z,10.40
2018-04-13T19:57:26.647Z,10.40
2018-04-13T19:59:54.548Z,10.40
2018-04-13T20:02:22.546Z,10.40
2018-04-13T20:04:50.481Z,10.40
2018-04-13T20:07:18.496Z,10.40
2018-04-13T20:09:46.403Z,10.40
2018-04-13T20:12:14.453Z,10.40
2018-04-13T20:14:43.117Z,10.40
2018-04-13T20:17:11.079Z,10.40
2018-04-13T20:19:38.971Z,10.40
2018-04-13T20:22:06.933Z,10.40
2018-04-13T20:24:34.828Z,10.30
2018-04-13T20:27:02.846Z,10.20
2018-04-13T20:29:30.820Z,10.20
2018-04-13T20:31:58.784Z,10.10
2018-04-13T20:34:26.750Z,10.10
2018-04-13T20:36:55.500Z,10.00
2018-04-13T20:39:24.161Z,10.00
2018-04-13T20:41:52.192Z,10.00
2018-04-13T20:44:20.100Z,10.00
2018-04-13T20:46:48.000Z,9.90
2018-04-13T20:49:15.994Z,9.90
2018-04-13T20:51:43.905Z,9.90
2018-04-13T20:54:11.846Z,9.90
2018-04-13T20:56:39.789Z,9.90
2018-04-13T20:59:07.739Z,9.90
2018-04-13T21:01:36.400Z,9.90
2018-04-13T21:04:04.453Z,9.90
2018-04-13T21:06:32.356Z,9.80
2018-04-13T21:09:00.313Z,9.80
2018-04-13T21:11:28.205Z,9.80
2018-04-13T21:13:56.922Z,9.80
2018-04-13T21:16:24.823Z,9.70
2018-04-13T21:18:52.768Z,9.70
2018-04-13T21:21:20.670Z,9.70
2018-04-13T21:23:48.702Z,9.70
2018-04-13T21:26:18.613Z,9.70
2018-04-13T21:28:46.666Z,9.60
2018-04-13T21:31:15.335Z,9.60
2018-04-13T21:33:43.281Z,9.60
2018-04-13T21:36:13.196Z,9.60
2018-04-13T21:38:46.275Z,9.50
2018-04-13T21:41:17.263Z,9.50
2018-04-13T21:43:48.532Z,9.50
2018-04-13T21:46:20.420Z,9.40
2018-04-13T21:48:52.119Z,9.40
2018-04-13T21:51:22.999Z,9.40
2018-04-13T21:53:54.079Z,9.30
2018-04-13T21:56:25.066Z,9.20
2018-04-13T21:58:56.746Z,9.10
2018-04-13T22:01:27.427Z,9.10
2018-04-13T22:03:59.585Z,9.00
2018-04-13T22:06:31.273Z,9.00
2018-04-13T22:09:03.540Z,8.90
2018-04-13T22:11:35.288Z,8.90
2018-04-13T22:17:14.697Z,8.80
2018-04-13T22:19:43.578Z,8.70
2018-04-13T22:22:11.476Z,8.70
2018-04-13T22:24:39.440Z,8.60
2018-04-13T22:27:09.916Z,8.60
2018-04-13T22:29:41.447Z,8.60
2018-04-13T22:32:11.936Z,8.60
2018-04-13T22:34:43.370Z,8.60
2018-04-13T22:37:15.615Z,8.70
2018-04-13T22:39:46.624Z,8.70
2018-04-13T22:42:17.769Z,8.80
2018-04-13T22:44:49.859Z,8.90
2018-04-13T22:47:20.771Z,8.90
2018-04-13T22:49:53.708Z,8.80
2018-04-13T22:52:25.782Z,8.80
2018-04-13T22:54:53.912Z,8.70
2018-04-13T22:57:21.816Z,8.80
2018-04-13T22:59:50.483Z,8.90
2018-04-13T23:02:18.474Z,8.90
2018-04-13T23:04:47.151Z,8.80
2018-04-13T23:07:15.895Z,8.80
2018-04-13T23:09:43.796Z,8.70
2018-04-13T23:12:11.780Z,8.70
2018-04-13T23:14:39.706Z,8.70
2018-04-13T23:17:07.691Z,8.70
2018-04-13T23:19:35.600Z,8.70
2018-04-13T23:22:04.334Z,8.70
2018-04-13T23:24:32.246Z,8.70
2018-04-13T23:27:00.231Z,8.70
2018-04-13T23:29:28.911Z,8.70
2018-04-13T23:31:57.628Z,8.70
2018-04-13T23:34:25.538Z,8.70
2018-04-13T23:36:55.848Z,8.70
2018-04-13T23:39:26.517Z,8.60
2018-04-13T23:41:57.801Z,8.70
2018-04-13T23:44:28.653Z,8.70
2018-04-13T23:46:59.346Z,8.70
2018-04-13T23:49:30.128Z,8.60
2018-04-13T23:52:02.308Z,8.50
2018-04-13T23:54:33.764Z,8.50
2018-04-13T23:57:05.142Z,8.50
2018-04-13T23:59:35.874Z,8.50
